PORTS® Data Listing: 9076027 West Neebish Island, MI

CO-OPS RAW PORTS DATA

************************      PRELIMINARY DATA      ************************** 

     THIS RAW DATA HAS NOT BEEN SUBJECT TO THE NATIONAL OCEAN SERVICE'S        
     QUALITY CONTROL OR QUALITY ASSURANCE PROCEDURES AND DOES NOT MEET         
     THE CRITERIA AND STANDARDS OF OFFICIAL NATIONAL OCEAN SERVICE             
     DATA.  IT IS RELEASED FOR LIMITED PUBLIC USE AS PRELIMINARY DATA TO       
     BE USED ONLY WITH APPROPRIATE CAUTION.                                    

************************      PRELIMINARY DATA      ************************** 


       CD   -   Calendar date
       T    -   Time
       TZ   -   Timezone
       SW   -   Observed secondary water level (inches IGLD 1985)
       PW   -   Observed primary water level (inches IGLD 1985)
       WS   -   Wind speed (knots)
       WD   -   Wind direction (degrees true)
       WG   -   Wind gust (knots)
       AT   -   Air temperature (degrees farenheit)
       WT   -   Water temperature (degrees farenheit)
       AP   -   Air pressure (millibars)
       SA   -   Salinty (PSU - Practical Salinity Units)
       SG   -   Specific gravity
       RH   -   Relative humidity
       AG   -   Air gap (feet)
       VI   -   Visibility (nautical miles)

       ** NOTE **
       A variable that has its data fields filled with "9"s, indicates that
       data was not collected for that sample period.
       **********


STATION NAME: West Neebish Island (9076027)
****************************************************************************************************
    CD       T    TZ    SW     PW    WS   WD   WG    AT    WT    AP    SA    SG     RH    AG   VI
****************************************************************************************************
2019/12/09 22:06 EST   44.65  44.69   10  328   15  16.9 -99.9  995.4 -9.9 -9.999 -99.9 -99.99 -9.99
2019/12/09 22:12 EST   44.57  44.61   11  332   14  16.7 -99.9  995.7 -9.9 -9.999  85.3 -99.99 -9.99
2019/12/09 22:18 EST   44.21  44.25   11  342   14  16.7 -99.9  995.6 -9.9 -9.999  85.7 -99.99 -9.99
2019/12/09 22:24 EST   44.21  44.21   13  345   16  16.7 -99.9  995.5 -9.9 -9.999  85.5 -99.99 -9.99
2019/12/09 22:30 EST   44.17  44.21   14  342   17  16.9 -99.9  995.8 -9.9 -9.999  85.0 -99.99 -9.99
2019/12/09 22:36 EST   44.17  44.25   12  349   17  16.7 -99.9  995.8 -9.9 -9.999  85.3 -99.99 -9.99
2019/12/09 22:42 EST   43.90  43.94   12  344   15  16.7 -99.9  995.7 -9.9 -9.999  85.6 -99.99 -9.99
2019/12/09 22:48 EST   43.90  43.90    8    2   16  16.3 -99.9  995.9 -9.9 -9.999  86.5 -99.99 -9.99
2019/12/09 22:54 EST   43.86  43.94    7    1   11  15.8 -99.9  996.0 -9.9 -9.999  86.2 -99.99 -9.99
2019/12/09 23:00 EST   43.66  43.74    7    2   11  15.8 -99.9  996.3 -9.9 -9.999  86.2 -99.99 -9.99
2019/12/09 23:06 EST   43.54  43.58   10  347   14  16.5 -99.9  996.4 -9.9 -9.999  86.1 -99.99 -9.99
2019/12/09 23:12 EST   43.39  43.43   12  354   15  16.0 -99.9  996.5 -9.9 -9.999  85.3 -99.99 -9.99
2019/12/09 23:18 EST   43.27  43.35   12  339   14  16.3 -99.9  996.7 -9.9 -9.999  85.8 -99.99 -9.99
2019/12/09 23:24 EST   43.11  43.19   12  334   15  16.2 -99.9  996.8 -9.9 -9.999  85.8 -99.99 -9.99
2019/12/09 23:30 EST   43.11  43.15   12  337   16  15.8 -99.9  997.0 -9.9 -9.999  85.7 -99.99 -9.99
2019/12/09 23:36 EST   42.99  43.07   13  338   17  15.6 -99.9  997.3 -9.9 -9.999  85.0 -99.99 -9.99
2019/12/09 23:42 EST   42.95  42.99   10  333   14  15.4 -99.9  997.5 -9.9 -9.999  85.3 -99.99 -9.99
2019/12/09 23:48 EST   43.03  43.03   12  334   15  15.1 -99.9  997.7 -9.9 -9.999  84.7 -99.99 -9.99
2019/12/09 23:54 EST   42.40  42.48   10  330   15  15.6 -99.9  997.8 -9.9 -9.999  84.5 -99.99 -9.99
2019/12/10 00:00 EST   42.40  42.44   10  331   13  15.1 -99.9  998.0 -9.9 -9.999  84.3 -99.99 -9.99
2019/12/10 00:06 EST   42.28  42.32    8  325   13  15.1 -99.9  998.3 -9.9 -9.999  84.4 -99.99 -9.99
2019/12/10 00:12 EST   42.17  42.24    9  326   12  15.3 -99.9  998.4 -9.9 -9.999  84.3 -99.99 -9.99
2019/12/10 00:18 EST   41.61  41.69   10  339   13  15.3 -99.9  998.4 -9.9 -9.999  84.3 -99.99 -9.99
2019/12/10 00:24 EST   41.89  41.97   10  328   14  15.4 -99.9  998.6 -9.9 -9.999  83.5 -99.99 -9.99
2019/12/10 00:30 EST   41.61  41.69   10  330   14  15.6 -99.9  998.7 -9.9 -9.999  83.8 -99.99 -9.99
2019/12/10 00:36 EST   41.54  41.61    9  326   14  15.4 -99.9  998.7 -9.9 -9.999  84.2 -99.99 -9.99
2019/12/10 00:42 EST   41.69  41.73   11  335   14  15.4 -99.9  999.0 -9.9 -9.999  83.6 -99.99 -9.99
2019/12/10 00:48 EST   41.54  41.57   11  333   13  15.1 -99.9  999.1 -9.9 -9.999  84.5 -99.99 -9.99
2019/12/10 00:54 EST   41.50  41.54    9  328   15  15.3 -99.9  999.2 -9.9 -9.999  84.7 -99.99 -9.99
2019/12/10 01:00 EST   41.46  41.50   10  336   13  14.7 -99.9  999.4 -9.9 -9.999  83.5 -99.99 -9.99
2019/12/10 01:06 EST   41.57  41.61    9  346   12  14.7 -99.9  999.6 -9.9 -9.999  84.4 -99.99 -9.99
2019/12/10 01:12 EST   41.42  41.50    9  341   12  14.4 -99.9 1000.0 -9.9 -9.999  84.6 -99.99 -9.99
2019/12/10 01:18 EST   41.57  41.61    8  349   13  14.2 -99.9 1000.2 -9.9 -9.999  84.4 -99.99 -9.99
2019/12/10 01:24 EST   41.46  41.54   10  335   12  14.0 -99.9 1000.3 -9.9 -9.999  83.5 -99.99 -9.99
2019/12/10 01:30 EST   41.42  41.46   10  337   12  13.6 -99.9 1000.4 -9.9 -9.999  83.5 -99.99 -9.99
2019/12/10 01:36 EST   41.54  41.57    9  348   12  13.8 -99.9 1000.6 -9.9 -9.999  83.8 -99.99 -9.99
2019/12/10 01:42 EST   41.54  41.57   10  336   13  14.0 -99.9 1000.8 -9.9 -9.999  83.6 -99.99 -9.99
2019/12/10 01:48 EST   41.54  41.57   10  350   13  13.8 -99.9 1001.1 -9.9 -9.999  83.7 -99.99 -9.99
2019/12/10 01:54 EST   41.81  41.85    9  334   13  13.6 -99.9 1001.3 -9.9 -9.999  84.4 -99.99 -9.99
2019/12/10 02:00 EST   41.65  41.73   10  335   13  13.6 -99.9 1001.4 -9.9 -9.999  83.4 -99.99 -9.99
2019/12/10 02:06 EST   41.77  41.85   12  336   15  13.5 -99.9 1001.6 -9.9 -9.999  83.4 -99.99 -9.99
2019/12/10 02:12 EST   42.01  42.05   10  349   14  13.1 -99.9 1002.0 -9.9 -9.999  83.5 -99.99 -9.99
2019/12/10 02:18 EST   41.97  42.05   13  349   17  12.7 -99.9 1002.1 -9.9 -9.999  82.9 -99.99 -9.99
2019/12/10 02:24 EST   41.18  41.22   12  346   17  12.7 -99.9 1002.2 -9.9 -9.999  83.3 -99.99 -9.99
2019/12/10 02:30 EST   43.90  43.94   13  346   16  12.6 -99.9 1002.4 -9.9 -9.999  83.1 -99.99 -9.99
2019/12/10 02:36 EST   41.14  41.22   14  343   17  12.0 -99.9 1002.6 -9.9 -9.999  82.5 -99.99 -9.99
2019/12/10 02:42 EST   38.98  39.02   12  336   16  12.2 -99.9 1002.8 -9.9 -9.999  83.1 -99.99 -9.99
2019/12/10 02:48 EST   41.38  41.42   13  340   16  11.7 -99.9 1003.0 -9.9 -9.999  82.4 -99.99 -9.99
2019/12/10 02:54 EST   40.87  40.94   13  346   16  11.5 -99.9 1003.3 -9.9 -9.999  82.3 -99.99 -9.99
2019/12/10 03:00 EST   40.87  40.91   11  350   16  11.5 -99.9 1003.6 -9.9 -9.999  82.2 -99.99 -9.99
2019/12/10 03:06 EST   41.61  41.65   15  342   17  10.9 -99.9 1003.7 -9.9 -9.999  81.5 -99.99 -9.99
2019/12/10 03:12 EST   40.75  40.79   13  345   18  10.9 -99.9 1003.9 -9.9 -9.999  81.2 -99.99 -9.99
2019/12/10 03:18 EST   41.42  41.50   14  337   16  10.8 -99.9 1004.0 -9.9 -9.999  82.2 -99.99 -9.99
2019/12/10 03:24 EST   41.14  41.18   14  337   20  10.2 -99.9 1004.0 -9.9 -9.999  80.4 -99.99 -9.99
2019/12/10 03:30 EST   41.02  41.06   13  339   18  10.4 -99.9 1004.2 -9.9 -9.999  80.8 -99.99 -9.99
2019/12/10 03:36 EST   40.98  41.02   10  331   15  10.4 -99.9 1004.4 -9.9 -9.999  81.6 -99.99 -9.99
2019/12/10 03:42 EST   41.02  41.10   11  358   16   9.7 -99.9 1004.5 -9.9 -9.999  81.4 -99.99 -9.99
2019/12/10 03:48 EST   41.22  41.26   14  352   19   9.1 -99.9 1004.6 -9.9 -9.999  80.9 -99.99 -9.99
2019/12/10 03:54 EST   40.51  40.55   14  348   19   9.1 -99.9 1004.6 -9.9 -9.999  80.3 -99.99 -9.99
2019/12/10 04:00 EST   40.43  40.47   13  346   17   9.0 -99.9 1004.7 -9.9 -9.999  80.5 -99.99 -9.99
2019/12/10 04:06 EST   40.43  40.47   12  351   17   8.6 -99.9 1004.8 -9.9 -9.999  81.5 -99.99 -9.99
2019/12/10 04:12 EST   40.12  40.16   12  346   19   8.2 -99.9 1004.8 -9.9 -9.999  82.0 -99.99 -9.99
2019/12/10 04:18 EST   40.08  40.12   15  343   19   8.4 -99.9 1005.0 -9.9 -9.999  80.8 -99.99 -9.99
2019/12/10 04:24 EST   40.20  40.24   14  348   18   8.1 -99.9 1005.1 -9.9 -9.999  82.1 -99.99 -9.99
2019/12/10 04:30 EST   40.63  40.63   13  349   19   8.2 -99.9 1005.3 -9.9 -9.999  82.9 -99.99 -9.99
2019/12/10 04:36 EST   40.87  40.91   13  354   19   7.3 -99.9 1005.5 -9.9 -9.999  81.5 -99.99 -9.99
2019/12/10 04:42 EST   39.80  39.84   13  351   19   7.2 -99.9 1005.7 -9.9 -9.999  81.5 -99.99 -9.99
2019/12/10 04:48 EST   40.04  40.08   14  348   19   6.6 -99.9 1005.9 -9.9 -9.999  80.6 -99.99 -9.99
2019/12/10 04:54 EST   40.31  40.35   11  348   18   7.0 -99.9 1006.1 -9.9 -9.999  81.0 -99.99 -9.99
2019/12/10 05:00 EST   40.79  40.83   14  353   20   6.3 -99.9 1006.3 -9.9 -9.999  80.7 -99.99 -9.99
2019/12/10 05:06 EST   40.71  40.79   17  347   20   5.9 -99.9 1006.5 -9.9 -9.999  80.1 -99.99 -9.99
2019/12/10 05:12 EST   40.31  40.35   15  350   19   5.7 -99.9 1006.7 -9.9 -9.999  79.8 -99.99 -9.99
2019/12/10 05:18 EST   40.20  40.24   15  348   19   5.7 -99.9 1006.8 -9.9 -9.999  80.0 -99.99 -9.99
2019/12/10 05:24 EST   39.96  40.00   16  348   21   5.2 -99.9 1007.2 -9.9 -9.999  79.6 -99.99 -9.99
2019/12/10 05:30 EST   40.00  40.04   14  343   18   4.8 -99.9 1007.4 -9.9 -9.999  79.6 -99.99 -9.99
2019/12/10 05:36 EST   39.80  39.84   13  352   35   4.5 -99.9 1007.6 -9.9 -9.999  79.5 -99.99 -9.99
2019/12/10 05:42 EST   39.72  39.76   14  355   29   4.6 -99.9 1007.9 -9.9 -9.999  80.0 -99.99 -9.99
2019/12/10 05:48 EST   39.76  39.84   11  350   23   4.8 -99.9 1008.0 -9.9 -9.999  81.7 -99.99 -9.99
2019/12/10 05:54 EST   39.76  39.80    8    8   27   3.4 -99.9 1008.1 -9.9 -9.999  80.1 -99.99 -9.99
2019/12/10 06:00 EST   39.96  40.00   11  334   14   3.6 -99.9 1008.3 -9.9 -9.999  80.4 -99.99 -9.99
2019/12/10 06:06 EST   40.00  40.04   10  348   16   2.8 -99.9 1008.6 -9.9 -9.999  80.1 -99.99 -9.99
2019/12/10 06:12 EST   40.08  40.12   13  344   16   3.2 -99.9 1008.7 -9.9 -9.999  79.5 -99.99 -9.99
2019/12/10 06:18 EST   40.28  40.28   13  344   16   2.7 -99.9 1008.8 -9.9 -9.999  78.2 -99.99 -9.99
2019/12/10 06:24 EST   40.31  40.35   13  349   16   1.6 -99.9 1008.9 -9.9 -9.999  75.0 -99.99 -9.99
2019/12/10 06:30 EST   40.43  40.43   12  334   15   1.9 -99.9 1009.1 -9.9 -9.999  75.2 -99.99 -9.99
2019/12/10 06:36 EST   40.51  40.51   10  321   14   1.9 -99.9 1009.3 -9.9 -9.999  75.6 -99.99 -9.99
2019/12/10 06:42 EST   40.63  40.71   10  320   14   1.8 -99.9 1009.5 -9.9 -9.999  75.7 -99.99 -9.99
2019/12/10 06:48 EST   40.67  40.75    9  320   13   1.4 -99.9 1009.6 -9.9 -9.999  74.8 -99.99 -9.99
2019/12/10 06:54 EST   40.79  40.83    9  322   12   1.4 -99.9 1009.8 -9.9 -9.999  74.8 -99.99 -9.99
2019/12/10 07:00 EST   40.87  40.91   11  325   13   1.4 -99.9 1010.0 -9.9 -9.999  74.9 -99.99 -9.99
2019/12/10 07:06 EST   40.91  40.94    7  322   13   1.8 -99.9 1010.2 -9.9 -9.999  76.6 -99.99 -9.99
2019/12/10 07:12 EST   41.06  41.10    8  323   12   1.0 -99.9 1010.4 -9.9 -9.999  75.1 -99.99 -9.99
2019/12/10 07:18 EST   41.22  41.26    8  329   12   1.4 -99.9 1010.6 -9.9 -9.999  75.1 -99.99 -9.99
2019/12/10 07:24 EST   41.46  41.50   10  322   12   1.4 -99.9 1010.7 -9.9 -9.999  74.9 -99.99 -9.99
2019/12/10 07:30 EST   41.77  41.85    8  334   12   1.6 -99.9 1010.9 -9.9 -9.999  75.7 -99.99 -9.99
2019/12/10 07:36 EST   42.20  42.24    9  344   12   1.8 -99.9 1011.1 -9.9 -9.999  75.8 -99.99 -9.99
2019/12/10 07:42 EST   42.60  42.60    9  343   12   2.1 -99.9 1011.2 -9.9 -9.999  76.3 -99.99 -9.99
2019/12/10 07:48 EST   42.99  43.03    8    6   12   1.9 -99.9 1011.2 -9.9 -9.999  76.8 -99.99 -9.99
2019/12/10 07:54 EST   43.27  43.31    7   19   12   1.4 -99.9 1011.4 -9.9 -9.999  76.6 -99.99 -9.99
2019/12/10 08:00 EST   43.46  43.50    6   43    8   0.7 -99.9 1011.4 -9.9 -9.999  75.0 -99.99 -9.99
2019/12/10 08:06 EST   43.90  43.90    6   37    8   0.5 -99.9 1011.5 -9.9 -9.999  73.2 -99.99 -9.99
2019/12/10 08:12 EST   44.02  44.06    6   31    8   0.7 -99.9 1011.7 -9.9 -9.999  72.9 -99.99 -9.99
2019/12/10 08:18 EST   44.13  44.17    4   39    9   0.5 -99.9 1011.9 -9.9 -9.999  73.1 -99.99 -9.99
2019/12/10 08:24 EST   44.33  44.37    4   26    6   0.5 -99.9 1012.1 -9.9 -9.999  73.7 -99.99 -9.99
2019/12/10 08:30 EST   44.45  44.49    4   30    6   0.3 -99.9 1012.2 -9.9 -9.999  72.9 -99.99 -9.99
2019/12/10 08:36 EST   44.61  44.65    3   39    5   0.1 -99.9 1012.4 -9.9 -9.999  73.1 -99.99 -9.99
2019/12/10 08:42 EST   44.69  44.72    3   32    5   0.5 -99.9 1012.5 -9.9 -9.999  72.9 -99.99 -9.99
2019/12/10 08:48 EST   44.76  44.80    3   33    5   0.5 -99.9 1012.6 -9.9 -9.999  73.8 -99.99 -9.99
2019/12/10 08:54 EST   44.80  44.84    3   43    5   0.7 -99.9 1012.7 -9.9 -9.999  73.1 -99.99 -9.99
2019/12/10 09:00 EST   44.80  44.84    2   56    4   0.1 -99.9 1012.8 -9.9 -9.999  73.2 -99.99 -9.99
2019/12/10 09:06 EST   44.84  44.88    3   62    3   0.5 -99.9 1012.8 -9.9 -9.999  73.3 -99.99 -9.99
2019/12/10 09:12 EST   44.96  45.00    3   55    4   0.5 -99.9 1012.9 -9.9 -9.999  72.8 -99.99 -9.99
2019/12/10 09:18 EST   45.04  45.08    3   55    5   0.9 -99.9 1013.2 -9.9 -9.999  73.2 -99.99 -9.99
2019/12/10 09:24 EST   45.16  45.20    3   67    4   1.6 -99.9 1013.3 -9.9 -9.999  72.4 -99.99 -9.99
2019/12/10 09:30 EST   45.31  45.35    2   83    4   1.8 -99.9 1013.4 -9.9 -9.999  72.6 -99.99 -9.99
2019/12/10 09:36 EST   45.51  45.55    4   72    6   1.8 -99.9 1013.5 -9.9 -9.999  70.8 -99.99 -9.99
2019/12/10 09:42 EST   45.59  45.63    4   52    5   1.8 -99.9 1013.4 -9.9 -9.999  71.6 -99.99 -9.99
2019/12/10 09:48 EST   45.63  45.67    4   50    5   1.9 -99.9 1013.5 -9.9 -9.999  71.1 -99.99 -9.99
2019/12/10 09:54 EST   45.67  45.71    4   39    6   2.1 -99.9 1013.6 -9.9 -9.999  70.7 -99.99 -9.99
2019/12/10 10:00 EST   45.63  45.67    3   63    4   2.5 -99.9 1013.7 -9.9 -9.999  70.5 -99.99 -9.99
2019/12/10 10:06 EST   45.51  45.59    3   35    5   2.7 -99.9 1013.7 -9.9 -9.999  70.3 -99.99 -9.99
2019/12/10 10:12 EST   45.47  45.51    3   61    4   2.8 -99.9 1013.7 -9.9 -9.999  69.6 -99.99 -9.99
2019/12/10 10:18 EST   45.43  45.47    4  104    5   3.4 -99.9 1013.9 -9.9 -9.999  68.2 -99.99 -9.99
2019/12/10 10:24 EST   45.43  45.47    3   68    5   3.0 -99.9 1014.0 -9.9 -9.999  66.2 -99.99 -9.99
2019/12/10 10:30 EST   45.47  45.51    3   52    5   3.4 -99.9 1014.2 -9.9 -9.999  66.4 -99.99 -9.99
2019/12/10 10:36 EST   45.51  45.55    3   48    5   3.6 -99.9 1014.2 -9.9 -9.999  66.2 -99.99 -9.99
2019/12/10 10:42 EST   45.47  45.51    3   35    6   3.7 -99.9 1014.2 -9.9 -9.999  65.4 -99.99 -9.99
2019/12/10 10:48 EST   45.35  45.43    3   39    6   3.7 -99.9 1014.2 -9.9 -9.999  64.7 -99.99 -9.99
2019/12/10 10:54 EST   45.16  45.24    2   34    4   4.5 -99.9 1014.3 -9.9 -9.999  65.5 -99.99 -9.99
2019/12/10 11:00 EST   45.04  45.12    2   13    4   4.3 -99.9 1014.3 -9.9 -9.999  64.3 -99.99 -9.99
2019/12/10 11:06 EST   44.84  44.88    2   25    4   4.5 -99.9 1014.4 -9.9 -9.999  63.5 -99.99 -9.99
2019/12/10 11:12 EST   44.72  44.76    1   57    4   6.1 -99.9 1014.6 -9.9 -9.999  63.7 -99.99 -9.99
2019/12/10 11:18 EST   44.61  44.69    1  281    2   6.4 -99.9 1014.5 -9.9 -9.999  63.0 -99.99 -9.99
2019/12/10 11:24 EST   44.61  44.69    3  332    4   5.7 -99.9 1014.6 -9.9 -9.999  63.9 -99.99 -9.99
2019/12/10 11:30 EST   44.57  44.65    2  262    4   6.3 -99.9 1014.7 -9.9 -9.999  62.0 -99.99 -9.99
2019/12/10 11:36 EST   44.57  44.65    3  292    5   6.1 -99.9 1014.7 -9.9 -9.999  64.4 -99.99 -9.99
2019/12/10 11:42 EST   44.49  44.57    2  319    4   6.4 -99.9 1014.8 -9.9 -9.999  65.8 -99.99 -9.99
2019/12/10 11:48 EST   44.41  44.49    1  326    3   6.4 -99.9 1014.8 -9.9 -9.999  63.3 -99.99 -9.99
2019/12/10 11:54 EST   44.37  44.41    2  190    3   7.2 -99.9 1014.8 -9.9 -9.999  63.1 -99.99 -9.99
2019/12/10 12:00 EST   44.21  44.25    2  142    4   9.1 -99.9 1014.8 -9.9 -9.999  62.2 -99.99 -9.99
2019/12/10 12:06 EST   44.17  44.21    2  194    4   9.0 -99.9 1014.8 -9.9 -9.999  62.4 -99.99 -9.99
2019/12/10 12:12 EST   44.13  44.17    2  226    3   8.4 -99.9 1014.7 -9.9 -9.999  64.0 -99.99 -9.99
2019/12/10 12:18 EST   44.13  44.17    1  347    3   9.0 -99.9 1014.7 -9.9 -9.999  64.3 -99.99 -9.99
2019/12/10 12:24 EST   44.21  44.25    2   59    3   8.2 -99.9 1014.6 -9.9 -9.999  62.5 -99.99 -9.99
2019/12/10 12:30 EST   44.29  44.33    1   60    2   8.8 -99.9 1014.5 -9.9 -9.999  62.7 -99.99 -9.99
2019/12/10 12:36 EST   44.41  44.45    1  166    2  11.1 -99.9 1014.5 -9.9 -9.999  59.3 -99.99 -9.99
2019/12/10 12:42 EST   44.53  44.57    1  213    3  12.0 -99.9 1014.5 -9.9 -9.999  59.5 -99.99 -9.99
2019/12/10 12:48 EST   44.57  44.61    1  264    3  10.8 -99.9 1014.6 -9.9 -9.999  60.9 -99.99 -9.99
2019/12/10 12:54 EST   44.57  44.61    2  187    3  11.1 -99.9 1014.6 -9.9 -9.999  61.8 -99.99 -9.99
2019/12/10 13:00 EST   44.69  44.72    2  330    3  10.2 -99.9 1014.7 -9.9 -9.999  61.0 -99.99 -9.99
2019/12/10 13:06 EST   44.76  44.80    3   18    5   9.7 -99.9 1014.7 -9.9 -9.999  62.3 -99.99 -9.99
2019/12/10 13:12 EST   44.88  44.92    1   54    4  10.2 -99.9 1014.7 -9.9 -9.999  62.5 -99.99 -9.99
2019/12/10 13:18 EST   45.00  45.04    1    8    2  11.1 -99.9 1014.7 -9.9 -9.999  62.0 -99.99 -9.99
2019/12/10 13:24 EST   45.16  45.20    2  318    6  11.5 -99.9 1014.8 -9.9 -9.999  62.1 -99.99 -9.99
2019/12/10 13:30 EST   45.35  45.39    1  304    5  11.3 -99.9 1014.9 -9.9 -9.999  60.9 -99.99 -9.99
2019/12/10 13:36 EST   45.59  45.59    3  259    5  11.8 -99.9 1014.8 -9.9 -9.999  62.4 -99.99 -9.99
2019/12/10 13:42 EST   45.67  45.67    2  124    5  13.6 -99.9 1014.8 -9.9 -9.999  60.1 -99.99 -9.99
2019/12/10 13:48 EST   45.83  45.87    3  224    4  13.1 -99.9 1014.8 -9.9 -9.999  59.5 -99.99 -9.99
2019/12/10 13:54 EST   45.91  45.94    3  237    8  12.0 -99.9 1014.8 -9.9 -9.999  60.8 -99.99 -9.99
2019/12/10 14:00 EST   46.06  46.10    2  195    5  12.9 -99.9 1014.7 -9.9 -9.999  61.7 -99.99 -9.99
2019/12/10 14:06 EST   46.22  46.26    3  127    6  13.1 -99.9 1014.8 -9.9 -9.999  61.6 -99.99 -9.99
2019/12/10 14:12 EST   46.38  46.42    3  217    5  12.2 -99.9 1014.8 -9.9 -9.999  63.7 -99.99 -9.99
2019/12/10 14:18 EST   46.50  46.54    3  176    5  12.4 -99.9 1014.8 -9.9 -9.999  64.5 -99.99 -9.99
2019/12/10 14:24 EST   46.61  46.65    4  185    5  12.0 -99.9 1014.8 -9.9 -9.999  64.8 -99.99 -9.99
2019/12/10 14:30 EST   46.77  46.81    4  185    5  12.2 -99.9 1014.8 -9.9 -9.999  64.6 -99.99 -9.99
2019/12/10 14:36 EST   46.89  46.93    2  122    4  12.6 -99.9 1014.6 -9.9 -9.999  63.0 -99.99 -9.99
2019/12/10 14:42 EST   46.97  47.01    1   65    3  12.9 -99.9 1014.7 -9.9 -9.999  62.6 -99.99 -9.99
2019/12/10 14:48 EST   47.13  47.17    1  103    3  13.5 -99.9 1014.7 -9.9 -9.999  62.0 -99.99 -9.99
2019/12/10 14:54 EST   47.28  47.32    3  138    4  12.7 -99.9 1014.7 -9.9 -9.999  63.0 -99.99 -9.99
2019/12/10 15:00 EST   47.48  47.52    2  121    4  13.8 -99.9 1014.6 -9.9 -9.999  62.4 -99.99 -9.99
2019/12/10 15:06 EST   47.64  47.68    5  141    6  13.8 -99.9 1014.6 -9.9 -9.999  61.9 -99.99 -9.99
2019/12/10 15:12 EST   47.72  47.76    5  143    7  13.6 -99.9 1014.6 -9.9 -9.999  62.2 -99.99 -9.99
2019/12/10 15:18 EST   47.80  47.83    4  137    7  13.5 -99.9 1014.7 -9.9 -9.999  63.8 -99.99 -9.99
2019/12/10 15:24 EST   47.87  47.91    4  149    7  13.8 -99.9 1014.8 -9.9 -9.999  64.1 -99.99 -9.99
2019/12/10 15:30 EST   47.99  47.99    4  159    6  13.1 -99.9 1014.8 -9.9 -9.999  65.0 -99.99 -9.99
2019/12/10 15:36 EST   47.99  48.03    5  150    8  12.9 -99.9 1014.9 -9.9 -9.999  66.2 -99.99 -9.99
2019/12/10 15:42 EST   48.03  48.07    4  179    6  13.6 -99.9 1014.8 -9.9 -9.999  66.4 -99.99 -9.99
2019/12/10 15:48 EST   48.11  48.15    5  177    7  13.5 -99.9 1014.9 -9.9 -9.999  66.0 -99.99 -9.99
2019/12/10 15:54 EST   48.19  48.23    5  176    6  13.5 -99.9 1014.9 -9.9 -9.999  67.2 -99.99 -9.99
2019/12/10 16:00 EST  -99.99 -99.99 -999 -999 -999 -99.9 -99.9 -999.9 -9.9 -9.999 -99.9 -99.99 -9.99
2019/12/10 16:06 EST  -99.99 -99.99 -999 -999 -999 -99.9 -99.9 -999.9 -9.9 -9.999 -99.9 -99.99 -9.99
2019/12/10 16:12 EST  -99.99 -99.99 -999 -999 -999 -99.9 -99.9 -999.9 -9.9 -9.999 -99.9 -99.99 -9.99
2019/12/10 16:18 EST  -99.99 -99.99 -999 -999 -999 -99.9 -99.9 -999.9 -9.9 -9.999 -99.9 -99.99 -9.99
2019/12/10 16:24 EST  -99.99 -99.99 -999 -999 -999 -99.9 -99.9 -999.9 -9.9 -9.999 -99.9 -99.99 -9.99
2019/12/10 16:30 EST  -99.99 -99.99 -999 -999 -999 -99.9 -99.9 -999.9 -9.9 -9.999 -99.9 -99.99 -9.99
2019/12/10 16:36 EST  -99.99 -99.99 -999 -999 -999 -99.9 -99.9 -999.9 -9.9 -9.999 -99.9 -99.99 -9.99
2019/12/10 16:42 EST  -99.99 -99.99 -999 -999 -999 -99.9 -99.9 -999.9 -9.9 -9.999 -99.9 -99.99 -9.99
2019/12/10 16:48 EST  -99.99 -99.99 -999 -999 -999 -99.9 -99.9 -999.9 -9.9 -9.999 -99.9 -99.99 -9.99
2019/12/10 16:54 EST  -99.99 -99.99 -999 -999 -999 -99.9 -99.9 -999.9 -9.9 -9.999 -99.9 -99.99 -9.99
2019/12/10 17:00 EST  -99.99 -99.99 -999 -999 -999 -99.9 -99.9 -999.9 -9.9 -9.999 -99.9 -99.99 -9.99
2019/12/10 17:06 EST  -99.99 -99.99 -999 -999 -999 -99.9 -99.9 -999.9 -9.9 -9.999 -99.9 -99.99 -9.99
2019/12/10 17:12 EST  -99.99 -99.99 -999 -999 -999 -99.9 -99.9 -999.9 -9.9 -9.999 -99.9 -99.99 -9.99
2019/12/10 17:18 EST  -99.99 -99.99 -999 -999 -999 -99.9 -99.9 -999.9 -9.9 -9.999 -99.9 -99.99 -9.99
2019/12/10 17:24 EST  -99.99 -99.99 -999 -999 -999 -99.9 -99.9 -999.9 -9.9 -9.999 -99.9 -99.99 -9.99
2019/12/10 17:30 EST  -99.99 -99.99 -999 -999 -999 -99.9 -99.9 -999.9 -9.9 -9.999 -99.9 -99.99 -9.99
2019/12/10 17:36 EST  -99.99 -99.99 -999 -999 -999 -99.9 -99.9 -999.9 -9.9 -9.999 -99.9 -99.99 -9.99
2019/12/10 17:42 EST  -99.99 -99.99 -999 -999 -999 -99.9 -99.9 -999.9 -9.9 -9.999 -99.9 -99.99 -9.99
2019/12/10 17:48 EST  -99.99 -99.99 -999 -999 -999 -99.9 -99.9 -999.9 -9.9 -9.999 -99.9 -99.99 -9.99
2019/12/10 17:54 EST  -99.99 -99.99 -999 -999 -999 -99.9 -99.9 -999.9 -9.9 -9.999 -99.9 -99.99 -9.99
2019/12/10 18:00 EST  -99.99 -99.99 -999 -999 -999 -99.9 -99.9 -999.9 -9.9 -9.999 -99.9 -99.99 -9.99
2019/12/10 18:06 EST  -99.99 -99.99 -999 -999 -999 -99.9 -99.9 -999.9 -9.9 -9.999 -99.9 -99.99 -9.99
2019/12/10 18:12 EST  -99.99 -99.99 -999 -999 -999 -99.9 -99.9 -999.9 -9.9 -9.999 -99.9 -99.99 -9.99
2019/12/10 18:18 EST  -99.99 -99.99 -999 -999 -999 -99.9 -99.9 -999.9 -9.9 -9.999 -99.9 -99.99 -9.99
2019/12/10 18:24 EST  -99.99 -99.99 -999 -999 -999 -99.9 -99.9 -999.9 -9.9 -9.999 -99.9 -99.99 -9.99
2019/12/10 18:30 EST  -99.99 -99.99 -999 -999 -999 -99.9 -99.9 -999.9 -9.9 -9.999 -99.9 -99.99 -9.99
2019/12/10 18:36 EST  -99.99 -99.99 -999 -999 -999 -99.9 -99.9 -999.9 -9.9 -9.999 -99.9 -99.99 -9.99
2019/12/10 18:42 EST  -99.99 -99.99 -999 -999 -999 -99.9 -99.9 -999.9 -9.9 -9.999 -99.9 -99.99 -9.99
2019/12/10 18:48 EST  -99.99 -99.99 -999 -999 -999 -99.9 -99.9 -999.9 -9.9 -9.999 -99.9 -99.99 -9.99
2019/12/10 18:54 EST  -99.99 -99.99 -999 -999 -999 -99.9 -99.9 -999.9 -9.9 -9.999 -99.9 -99.99 -9.99
2019/12/10 19:00 EST  -99.99 -99.99 -999 -999 -999 -99.9 -99.9 -999.9 -9.9 -9.999 -99.9 -99.99 -9.99
2019/12/10 19:06 EST  -99.99 -99.99 -999 -999 -999 -99.9 -99.9 -999.9 -9.9 -9.999 -99.9 -99.99 -9.99
2019/12/10 19:12 EST  -99.99 -99.99 -999 -999 -999 -99.9 -99.9 -999.9 -9.9 -9.999 -99.9 -99.99 -9.99
2019/12/10 19:18 EST  -99.99 -99.99 -999 -999 -999 -99.9 -99.9 -999.9 -9.9 -9.999 -99.9 -99.99 -9.99
2019/12/10 19:24 EST  -99.99 -99.99 -999 -999 -999 -99.9 -99.9 -999.9 -9.9 -9.999 -99.9 -99.99 -9.99
2019/12/10 19:30 EST  -99.99 -99.99 -999 -999 -999 -99.9 -99.9 -999.9 -9.9 -9.999 -99.9 -99.99 -9.99
2019/12/10 19:36 EST  -99.99 -99.99 -999 -999 -999 -99.9 -99.9 -999.9 -9.9 -9.999 -99.9 -99.99 -9.99
2019/12/10 19:42 EST  -99.99 -99.99 -999 -999 -999 -99.9 -99.9 -999.9 -9.9 -9.999 -99.9 -99.99 -9.99
2019/12/10 19:48 EST  -99.99 -99.99 -999 -999 -999 -99.9 -99.9 -999.9 -9.9 -9.999 -99.9 -99.99 -9.99
2019/12/10 19:54 EST  -99.99 -99.99 -999 -999 -999 -99.9 -99.9 -999.9 -9.9 -9.999 -99.9 -99.99 -9.99
2019/12/10 20:00 EST  -99.99 -99.99 -999 -999 -999 -99.9 -99.9 -999.9 -9.9 -9.999 -99.9 -99.99 -9.99
2019/12/10 20:06 EST  -99.99 -99.99 -999 -999 -999 -99.9 -99.9 -999.9 -9.9 -9.999 -99.9 -99.99 -9.99
2019/12/10 20:12 EST  -99.99 -99.99 -999 -999 -999 -99.9 -99.9 -999.9 -9.9 -9.999 -99.9 -99.99 -9.99
2019/12/10 20:18 EST  -99.99 -99.99 -999 -999 -999 -99.9 -99.9 -999.9 -9.9 -9.999 -99.9 -99.99 -9.99
2019/12/10 20:24 EST  -99.99 -99.99 -999 -999 -999 -99.9 -99.9 -999.9 -9.9 -9.999 -99.9 -99.99 -9.99
2019/12/10 20:30 EST  -99.99 -99.99 -999 -999 -999 -99.9 -99.9 -999.9 -9.9 -9.999 -99.9 -99.99 -9.99
2019/12/10 20:36 EST  -99.99 -99.99 -999 -999 -999 -99.9 -99.9 -999.9 -9.9 -9.999 -99.9 -99.99 -9.99
2019/12/10 20:42 EST  -99.99 -99.99 -999 -999 -999 -99.9 -99.9 -999.9 -9.9 -9.999 -99.9 -99.99 -9.99
2019/12/10 20:48 EST  -99.99 -99.99 -999 -999 -999 -99.9 -99.9 -999.9 -9.9 -9.999 -99.9 -99.99 -9.99
2019/12/10 20:54 EST  -99.99 -99.99 -999 -999 -999 -99.9 -99.9 -999.9 -9.9 -9.999 -99.9 -99.99 -9.99
2019/12/10 21:00 EST  -99.99 -99.99 -999 -999 -999 -99.9 -99.9 -999.9 -9.9 -9.999 -99.9 -99.99 -9.99
2019/12/10 21:06 EST  -99.99 -99.99 -999 -999 -999 -99.9 -99.9 -999.9 -9.9 -9.999 -99.9 -99.99 -9.99
2019/12/10 21:12 EST  -99.99 -99.99 -999 -999 -999 -99.9 -99.9 -999.9 -9.9 -9.999 -99.9 -99.99 -9.99
2019/12/10 21:18 EST  -99.99 -99.99 -999 -999 -999 -99.9 -99.9 -999.9 -9.9 -9.999 -99.9 -99.99 -9.99
2019/12/10 21:24 EST  -99.99 -99.99 -999 -999 -999 -99.9 -99.9 -999.9 -9.9 -9.999 -99.9 -99.99 -9.99
2019/12/10 21:30 EST  -99.99 -99.99 -999 -999 -999 -99.9 -99.9 -999.9 -9.9 -9.999 -99.9 -99.99 -9.99
2019/12/10 21:36 EST  -99.99 -99.99 -999 -999 -999 -99.9 -99.9 -999.9 -9.9 -9.999 -99.9 -99.99 -9.99
2019/12/10 21:42 EST  -99.99 -99.99 -999 -999 -999 -99.9 -99.9 -999.9 -9.9 -9.999 -99.9 -99.99 -9.99
2019/12/10 21:48 EST  -99.99 -99.99 -999 -999 -999 -99.9 -99.9 -999.9 -9.9 -9.999 -99.9 -99.99 -9.99
2019/12/10 21:54 EST  -99.99 -99.99 -999 -999 -999 -99.9 -99.9 -999.9 -9.9 -9.999 -99.9 -99.99 -9.99
2019/12/10 22:00 EST  -99.99 -99.99 -999 -999 -999 -99.9 -99.9 -999.9 -9.9 -9.999 -99.9 -99.99 -9.99
2019/12/10 22:06 EST  -99.99 -99.99 -999 -999 -999 -99.9 -99.9 -999.9 -9.9 -9.999 -99.9 -99.99 -9.99